Time;durP1;ratioP1;P1;durP2;ratioP2;P2;SDS_P1;SDS_P2;PMS_P1;PMS_P2;Temp;Humidity;BMP_temperature;BMP_pressure;BME280_temperature;BME280_humidity;BME280_pressure;Samples;Min_cycle;Max_cycle;Signal;HPM_P1;HPM_P2
2022/11/14 00:01:35;;;;;;;63.92;36.35;;;6.50;99.90;;;;;;5078821;28;20039;-59
2022/11/14 00:04:01;;;;;;;61.78;36.78;;;6.50;99.90;;;;;;5081850;28;20088;-59
2022/11/14 00:06:26;;;;;;;60.40;35.88;;;6.50;99.90;;;;;;5085105;28;20044;-60
2022/11/14 00:08:52;;;;;;;61.88;36.00;;;;;;;;;;5078862;28;20068;-59
2022/11/14 00:11:18;;;;;;;61.13;36.60;;;6.50;99.90;;;;;;5080050;28;20100;-58
2022/11/14 00:13:44;;;;;;;65.10;38.40;;;6.50;99.90;;;;;;5082373;28;20036;-59
2022/11/14 00:16:09;;;;;;;64.05;38.53;;;6.50;99.90;;;;;;5079280;28;20424;-59
2022/11/14 00:18:35;;;;;;;59.35;34.97;;;6.50;99.90;;;;;;5080132;28;20063;-59
2022/11/14 00:21:00;;;;;;;66.38;38.85;;;6.60;99.90;;;;;;5079887;28;20043;-57
2022/11/14 00:23:26;;;;;;;63.42;37.45;;;6.60;99.90;;;;;;5080647;28;20173;-59
2022/11/14 00:25:51;;;;;;;65.47;37.60;;;6.50;99.90;;;;;;5081023;28;20040;-61
2022/11/14 00:28:17;;;;;;;69.10;43.80;;;6.50;99.90;;;;;;5078081;28;20382;-59
2022/11/14 00:30:49;;;;;;;64.50;38.97;;;6.50;99.90;;;;;;5079701;28;20144;-58
2022/11/14 00:33:15;;;;;;;69.50;41.25;;;6.60;99.90;;;;;;5082956;28;20052;-59
2022/11/14 00:35:48;;;;;;;60.22;36.10;;;6.50;99.90;;;;;;5084860;28;20048;-58
2022/11/14 00:38:14;;;;;;;66.25;39.75;;;6.50;99.90;;;;;;5069577;28;20040;-60
2022/11/14 00:40:39;;;;;;;68.45;41.25;;;6.50;99.90;;;;;;5087148;28;20058;-60
2022/11/14 00:43:05;;;;;;;66.03;40.17;;;6.50;99.90;;;;;;5069305;28;20040;-60
2022/11/14 00:45:30;;;;;;;63.65;41.22;;;6.50;99.90;;;;;;5083639;28;20040;-57
2022/11/14 00:47:56;;;;;;;55.03;32.30;;;6.50;99.90;;;;;;5064887;28;20054;-59
2022/11/14 00:50:21;;;;;;;66.18;40.03;;;6.50;99.90;;;;;;5068909;28;20060;-57
2022/11/14 00:52:47;;;;;;;66.00;40.80;;;6.40;99.90;;;;;;5083751;28;20481;-58
2022/11/14 00:55:12;;;;;;;61.20;33.30;;;6.40;99.90;;;;;;5083787;28;20055;-58
2022/11/14 00:57:38;;;;;;;70.90;41.63;;;6.40;99.90;;;;;;5084609;28;20046;-58
2022/11/14 01:00:05;;;;;;;62.08;38.33;;;6.30;99.90;;;;;;5084127;28;20032;-60
2022/11/14 01:02:31;;;;;;;70.22;42.88;;;6.30;99.90;;;;;;5084277;28;20082;-57
2022/11/14 01:04:56;;;;;;;73.55;41.78;;;6.30;99.90;;;;;;5083286;28;20040;-58
2022/11/14 01:07:22;;;;;;;68.88;41.80;;;6.20;99.90;;;;;;5080950;28;20112;-59
2022/11/14 01:09:47;;;;;;;66.35;40.47;;;6.10;99.90;;;;;;5083659;28;20048;-59
2022/11/14 01:12:13;;;;;;;69.78;40.80;;;6.10;99.90;;;;;;5083182;28;20132;-57
2022/11/14 01:14:39;;;;;;;64.65;39.67;;;6.00;99.90;;;;;;5067085;28;20397;-60
2022/11/14 01:17:06;;;;;;;71.13;40.10;;;6.00;99.90;;;;;;5082477;28;20032;-59
2022/11/14 01:19:31;;;;;;;69.45;42.72;;;5.90;99.90;;;;;;5079879;28;20051;-59
2022/11/14 01:21:57;;;;;;;72.53;42.58;;;5.90;99.90;;;;;;5083707;28;20040;-60
2022/11/14 01:24:22;;;;;;;65.95;39.60;;;5.90;99.90;;;;;;5076515;28;20385;-57
2022/11/14 01:26:48;;;;;;;68.47;40.95;;;5.90;99.90;;;;;;5085427;28;20076;-59
2022/11/14 01:29:14;;;;;;;67.10;39.40;;;5.90;99.90;;;;;;5081210;28;20028;-59
2022/11/14 01:31:40;;;;;;;70.30;40.97;;;5.80;99.90;;;;;;5089470;28;20084;-58
2022/11/14 01:34:06;;;;;;;74.20;42.75;;;5.80;99.90;;;;;;5082515;28;20519;-57
2022/11/14 01:36:32;;;;;;;67.72;41.10;;;5.80;99.90;;;;;;5081960;28;20501;-55
2022/11/14 01:38:58;;;;;;;63.40;38.67;;;5.80;99.90;;;;;;5082505;28;20067;-60
2022/11/14 01:41:24;;;;;;;68.47;40.92;;;5.70;99.90;;;;;;5065046;28;20396;-57
2022/11/14 01:43:49;;;;;;;73.13;42.70;;;5.70;99.90;;;;;;5083566;28;20048;-56
2022/11/14 01:46:22;;;;;;;66.13;38.00;;;5.70;99.90;;;;;;5084579;28;20041;-61
2022/11/14 01:49:13;;;;;;;73.75;42.60;;;5.70;99.90;;;;;;5082147;28;20050;-58
2022/11/14 01:51:44;;;;;;;68.60;41.30;;;5.60;99.90;;;;;;5086755;28;21488;-60
2022/11/14 01:54:29;;;;;;;68.28;40.42;;;5.60;99.90;;;;;;5083586;28;20435;-58
2022/11/14 01:56:58;;;;;;;70.18;42.67;;;5.60;99.90;;;;;;5082644;28;21498;-59
2022/11/14 01:59:30;;;;;;;75.90;42.88;;;5.60;99.90;;;;;;5081764;28;20461;-60
2022/11/14 02:01:58;;;;;;;72.65;43.90;;;5.50;99.90;;;;;;5082760;28;20127;-59
2022/11/14 02:04:34;;;;;;;74.38;41.00;;;5.40;99.90;;;;;;5079989;28;20119;-57
2022/11/14 02:07:02;;;;;;;71.45;40.15;;;5.40;99.90;;;;;;5082183;28;20423;-60
2022/11/14 02:09:32;;;;;;;77.32;44.55;;;5.40;99.90;;;;;;5082944;28;20516;-59
2022/11/14 02:12:00;;;;;;;70.97;42.20;;;5.40;99.90;;;;;;5080320;28;20701;-58
2022/11/14 02:14:27;;;;;;;74.97;43.10;;;5.30;99.90;;;;;;5083329;28;20095;-57
2022/11/14 02:16:54;;;;;;;79.63;45.38;;;5.30;99.90;;;;;;5082327;28;20163;-57
2022/11/14 02:19:20;;;;;;;72.20;41.60;;;5.30;99.90;;;;;;5064057;28;20052;-59
2022/11/14 02:21:45;;;;;;;77.90;43.95;;;5.30;99.90;;;;;;5078961;28;20419;-60
2022/11/14 02:24:12;;;;;;;70.00;39.45;;;5.30;99.90;;;;;;5084690;28;20411;-60
2022/11/14 02:26:40;;;;;;;78.93;46.10;;;5.30;99.90;;;;;;5080862;28;20492;-59
2022/11/14 02:29:07;;;;;;;79.53;44.25;;;5.30;99.90;;;;;;5082061;28;20063;-58
2022/11/14 02:31:33;;;;;;;81.57;45.85;;;5.30;99.90;;;;;;5080779;28;20040;-59
2022/11/14 02:33:59;;;;;;;80.43;46.40;;;5.30;99.90;;;;;;5079975;28;20045;-59
2022/11/14 02:36:25;;;;;;;78.53;44.08;;;5.40;99.90;;;;;;5081164;28;20055;-58
2022/11/14 02:38:50;;;;;;;74.47;41.47;;;5.40;99.90;;;;;;5079553;28;20074;-59
2022/11/14 02:41:16;;;;;;;74.90;43.42;;;5.40;99.90;;;;;;5078716;28;20135;-59
2022/11/14 02:43:42;;;;;;;86.72;48.55;;;5.40;99.90;;;;;;5080761;28;20035;-59
2022/11/14 02:46:08;;;;;;;71.47;39.53;;;5.40;99.90;;;;;;5082075;28;20036;-56
2022/11/14 02:48:33;;;;;;;68.85;37.45;;;5.40;99.90;;;;;;5082905;28;20040;-56
2022/11/14 02:50:59;;;;;;;81.53;44.50;;;5.50;99.90;;;;;;5082270;28;20040;-57
2022/11/14 02:53:24;;;;;;;90.65;50.17;;;5.50;99.90;;;;;;5079866;28;20548;-59
2022/11/14 02:55:50;;;;;;;80.47;45.03;;;5.50;99.90;;;;;;5061253;28;20048;-58
2022/11/14 02:58:16;;;;;;;83.30;46.30;;;5.50;99.90;;;;;;5083867;28;20032;-57
2022/11/14 03:00:41;;;;;;;84.80;46.53;;;5.50;99.90;;;;;;5082360;28;20033;-59
2022/11/14 03:03:07;;;;;;;76.10;42.42;;;5.50;99.90;;;;;;5081691;28;20443;-60
2022/11/14 03:05:33;;;;;;;75.68;43.83;;;5.40;99.90;;;;;;5080104;28;20126;-59
2022/11/14 03:07:58;;;;;;;82.47;46.45;;;5.40;99.90;;;;;;5065797;28;20055;-61
2022/11/14 03:10:24;;;;;;;80.20;42.35;;;5.40;99.90;;;;;;5082055;28;20070;-59
2022/11/14 03:12:54;;;;;;;80.93;46.10;;;5.40;99.90;;;;;;5080750;28;20424;-60
2022/11/14 03:15:19;;;;;;;83.13;45.83;;;5.40;99.90;;;;;;5065583;28;20044;-59
2022/11/14 03:17:45;;;;;;;89.03;49.03;;;5.40;99.90;;;;;;5081442;28;20044;-59
2022/11/14 03:20:11;;;;;;;82.70;46.58;;;5.40;99.90;;;;;;5082565;28;20548;-60
2022/11/14 03:22:36;;;;;;;85.00;47.08;;;5.40;99.90;;;;;;5081491;28;20040;-59
2022/11/14 03:25:02;;;;;;;86.22;46.10;;;5.40;99.90;;;;;;5081869;28;20158;-59
2022/11/14 03:27:28;;;;;;;85.20;47.85;;;5.50;99.90;;;;;;5063229;28;20437;-60
2022/11/14 03:29:53;;;;;;;85.63;48.20;;;5.50;99.90;;;;;;5084669;28;20128;-60
2022/11/14 03:32:19;;;;;;;75.85;42.78;;;5.50;99.90;;;;;;5067013;28;20052;-60
2022/11/14 03:34:44;;;;;;;85.32;47.70;;;5.50;99.90;;;;;;5081875;28;20086;-59
2022/11/14 03:37:10;;;;;;;85.53;48.03;;;5.50;99.90;;;;;;5081134;28;20036;-60
2022/11/14 03:39:36;;;;;;;85.30;48.47;;;5.50;99.90;;;;;;5080669;28;20043;-59
2022/11/14 03:42:01;;;;;;;89.55;49.03;;;5.50;99.90;;;;;;5080635;28;20051;-60
2022/11/14 03:44:27;;;;;;;85.82;48.65;;;5.50;99.90;;;;;;5083932;28;20032;-60
2022/11/14 03:46:52;;;;;;;87.25;47.72;;;5.50;99.90;;;;;;5079326;28;20039;-58
2022/11/14 03:49:18;;;;;;;83.65;46.88;;;5.50;99.90;;;;;;5082855;28;20078;-58
2022/11/14 03:51:44;;;;;;;83.22;46.05;;;5.50;99.90;;;;;;5081222;28;20043;-58
2022/11/14 03:54:09;;;;;;;81.07;48.70;;;5.50;99.90;;;;;;5081749;28;20130;-60
2022/11/14 03:56:35;;;;;;;82.18;43.08;;;5.50;99.90;;;;;;5083143;28;20068;-60
2022/11/14 03:59:00;;;;;;;79.55;46.90;;;5.50;99.90;;;;;;5063898;28;20052;-59
2022/11/14 04:01:28;;;;;;;77.13;44.67;;;5.50;99.90;;;;;;5083568;28;20039;-59
2022/11/14 04:03:53;;;;;;;85.68;47.83;;;5.50;99.90;;;;;;5082634;28;20035;-57
2022/11/14 04:06:22;;;;;;;78.55;45.33;;;5.50;99.90;;;;;;5082548;28;20132;-59
2022/11/14 04:08:48;;;;;;;72.93;42.90;;;5.50;99.90;;;;;;5082870;28;20036;-58
2022/11/14 04:11:13;;;;;;;80.00;45.58;;;5.50;99.90;;;;;;5083010;28;20089;-59
2022/11/14 04:13:39;;;;;;;74.18;44.17;;;5.50;99.90;;;;;;5081616;28;20056;-59
2022/11/14 04:16:05;;;;;;;78.80;44.80;;;5.50;99.90;;;;;;5078446;28;20032;-59
2022/11/14 04:18:30;;;;;;;82.47;46.83;;;5.50;99.90;;;;;;5082020;28;20041;-61
2022/11/14 04:20:56;;;;;;;67.78;36.40;;;5.50;99.90;;;;;;5082482;28;20032;-59
2022/11/14 04:23:21;;;;;;;73.25;43.17;;;5.60;99.90;;;;;;5083595;28;20036;-57
2022/11/14 04:25:47;;;;;;;77.00;45.83;;;5.60;99.90;;;;;;5081868;28;20092;-59
2022/11/14 04:28:13;;;;;;;79.28;46.88;;;5.60;99.90;;;;;;5080321;28;20036;-59
2022/11/14 04:30:39;;;;;;;76.25;46.28;;;5.60;99.90;;;;;;5081842;28;20052;-60
2022/11/14 04:33:05;;;;;;;84.15;48.53;;;5.60;99.90;;;;;;5081661;28;20060;-58
2022/11/14 04:35:30;;;;;;;76.95;45.55;;;5.60;99.90;;;;;;5085036;28;20078;-58
2022/11/14 04:37:56;;;;;;;78.97;45.17;;;5.60;99.90;;;;;;5080723;28;20528;-59
2022/11/14 04:40:21;;;;;;;79.57;46.08;;;5.60;99.90;;;;;;5083794;28;20039;-58
2022/11/14 04:42:47;;;;;;;77.65;47.00;;;5.60;99.90;;;;;;5083436;28;20212;-61
2022/11/14 04:45:13;;;;;;;79.80;44.97;;;5.60;99.90;;;;;;5083145;28;20063;-61
2022/11/14 04:47:41;;;;;;;81.38;46.60;;;5.60;99.90;;;;;;5064692;28;20094;-59
2022/11/14 04:50:07;;;;;;;80.00;45.78;;;5.70;99.90;;;;;;5082046;28;20127;-59
2022/11/14 04:52:33;;;;;;;76.95;46.75;;;5.70;99.90;;;;;;5078691;28;20051;-57
2022/11/14 04:54:59;;;;;;;80.07;44.95;;;5.70;99.90;;;;;;5079129;28;20032;-59
2022/11/14 04:57:24;;;;;;;78.30;42.42;;;5.70;99.90;;;;;;5077389;28;20040;-59
2022/11/14 04:59:50;;;;;;;80.38;46.47;;;5.70;99.90;;;;;;5080309;28;20433;-61
2022/11/14 05:02:16;;;;;;;70.40;42.20;;;5.70;99.90;;;;;;5079313;28;20354;-59
2022/11/14 05:04:43;;;;;;;78.32;45.85;;;5.70;99.90;;;;;;5082225;28;20046;-59
2022/11/14 05:07:09;;;;;;;74.28;44.42;;;5.70;99.90;;;;;;5079639;28;20055;-60
2022/11/14 05:09:35;;;;;;;71.25;40.17;;;5.70;99.90;;;;;;5064393;28;20036;-60
2022/11/14 05:12:02;;;;;;;69.53;38.40;;;5.70;99.90;;;;;;5080457;28;20051;-59
2022/11/14 05:14:27;;;;;;;73.63;44.80;;;5.70;99.90;;;;;;5078550;28;20170;-57
2022/11/14 05:16:53;;;;;;;69.55;37.13;;;5.70;99.90;;;;;;5076835;28;20151;-60
2022/11/14 05:19:19;;;;;;;78.03;45.05;;;5.70;99.90;;;;;;5082158;28;20115;-60
2022/11/14 05:21:44;;;;;;;77.80;46.50;;;5.70;99.90;;;;;;5080990;28;20039;-61
2022/11/14 05:24:10;;;;;;;79.10;45.35;;;5.60;99.90;;;;;;5083535;28;20483;-58
2022/11/14 05:26:36;;;;;;;79.10;48.42;;;5.70;99.90;;;;;;5081753;28;20489;-60
2022/11/14 05:29:02;;;;;;;77.20;44.28;;;5.70;99.90;;;;;;5080987;28;20051;-59
2022/11/14 05:31:28;;;;;;;71.05;41.40;;;5.60;99.90;;;;;;5083298;28;20047;-58
2022/11/14 05:33:54;;;;;;;78.95;47.25;;;5.60;99.90;;;;;;5082643;28;20409;-60
2022/11/14 05:36:19;;;;;;;80.18;45.80;;;5.60;99.90;;;;;;5083861;28;20505;-58
2022/11/14 05:38:45;;;;;;;81.75;46.05;;;5.50;99.90;;;;;;5083185;28;20496;-60
2022/11/14 05:41:13;;;;;;;77.70;44.60;;;5.50;99.90;;;;;;5064425;28;20435;-60
2022/11/14 05:43:40;;;;;;;80.28;44.50;;;5.50;99.90;;;;;;5083247;28;20044;-59
2022/11/14 05:46:09;;;;;;;84.63;47.67;;;5.50;99.90;;;;;;5084244;28;20040;-58
2022/11/14 05:48:35;;;;;;;74.72;42.75;;;5.40;99.90;;;;;;5065500;28;20056;-59
2022/11/14 05:51:02;;;;;;;82.18;45.03;;;5.50;99.90;;;;;;5082605;28;20042;-60
2022/11/14 05:53:30;;;;;;;82.68;46.67;;;5.50;99.90;;;;;;5082274;28;20123;-59
2022/11/14 05:56:01;;;;;;;79.88;45.22;;;5.50;99.90;;;;;;5066337;28;21495;-59
2022/11/14 05:58:26;;;;;;;86.20;47.90;;;5.50;99.90;;;;;;5081158;28;20040;-59
2022/11/14 06:00:52;;;;;;;73.97;44.25;;;5.50;99.90;;;;;;5082389;28;20511;-59
2022/11/14 06:03:18;;;;;;;83.40;45.53;;;5.50;99.90;;;;;;5083564;28;20039;-58
2022/11/14 06:05:43;;;;;;;78.43;42.88;;;5.40;99.90;;;;;;5086320;28;20134;-59
2022/11/14 06:08:09;;;;;;;80.90;46.58;;;5.40;99.90;;;;;;5080724;28;20079;-59
2022/11/14 06:10:35;;;;;;;73.93;42.03;;;5.40;99.90;;;;;;5082082;28;20702;-60
2022/11/14 06:13:01;;;;;;;78.00;45.92;;;5.30;99.90;;;;;;5081884;28;20051;-58
2022/11/14 06:15:27;;;;;;;76.60;43.17;;;5.30;99.90;;;;;;5084073;28;20051;-60
2022/11/14 06:17:53;;;;;;;69.43;40.90;;;5.30;99.90;;;;;;5082485;28;20393;-57
2022/11/14 06:20:19;;;;;;;72.95;43.58;;;5.20;99.90;;;;;;5081386;28;21728;-61
2022/11/14 06:22:45;;;;;;;63.35;34.80;;;5.20;99.90;;;;;;5081600;28;20078;-55
2022/11/14 06:25:10;;;;;;;83.40;44.17;;;5.10;99.90;;;;;;5083117;28;20493;-59
2022/11/14 06:27:36;;;;;;;78.43;42.13;;;5.10;99.90;;;;;;5068571;28;20103;-60
2022/11/14 06:30:02;;;;;;;72.18;42.83;;;5.10;99.90;;;;;;5062474;28;20048;-60
2022/11/14 06:32:28;;;;;;;74.93;40.60;;;5.00;99.90;;;;;;5081097;28;20044;-59
2022/11/14 06:34:54;;;;;;;83.35;45.80;;;5.00;99.90;;;;;;5081798;28;20078;-57
2022/11/14 06:37:19;;;;;;;70.50;38.92;;;5.00;99.90;;;;;;5065448;28;20163;-59
2022/11/14 06:39:45;;;;;;;68.43;35.33;;;4.90;99.90;;;;;;5080860;28;20508;-59
2022/11/14 06:42:10;;;;;;;68.18;36.53;;;5.00;99.90;;;;;;5082715;28;20506;-59
2022/11/14 06:44:36;;;;;;;68.78;37.13;;;5.00;99.90;;;;;;5084023;28;20647;-60
2022/11/14 06:47:01;;;;;;;71.57;38.25;;;4.90;99.90;;;;;;5082443;28;20493;-59
2022/11/14 06:49:27;;;;;;;67.45;37.60;;;5.00;99.90;;;;;;5083063;28;20036;-58
2022/11/14 06:51:53;;;;;;;73.53;39.83;;;4.90;99.90;;;;;;5063910;28;20500;-59
2022/11/14 06:54:19;;;;;;;72.97;39.92;;;5.00;99.90;;;;;;5081098;28;20052;-59
2022/11/14 06:56:45;;;;;;;68.38;38.83;;;4.90;99.90;;;;;;5081237;28;20158;-60
2022/11/14 06:59:11;;;;;;;70.45;38.03;;;4.80;99.90;;;;;;5081070;28;20388;-59
2022/11/14 07:01:36;;;;;;;67.82;37.30;;;4.80;99.90;;;;;;5082735;28;20040;-59
2022/11/14 07:04:02;;;;;;;68.13;38.15;;;4.70;99.90;;;;;;5082878;28;20397;-60
2022/11/14 07:06:29;;;;;;;68.55;38.58;;;4.70;99.90;;;;;;5084900;28;20047;-60
2022/11/14 07:08:56;;;;;;;80.05;41.42;;;4.70;99.90;;;;;;5082795;28;20642;-60
2022/11/14 07:11:25;;;;;;;74.90;40.13;;;4.70;99.90;;;;;;5083826;28;20082;-59
2022/11/14 07:13:57;;;;;;;72.40;38.92;;;4.70;99.90;;;;;;5082769;28;20048;-59
2022/11/14 07:16:24;;;;;;;73.07;38.47;;;4.70;99.90;;;;;;5079943;28;20477;-58
2022/11/14 07:18:50;;;;;;;75.65;41.78;;;4.70;99.90;;;;;;5081211;28;20051;-59
2022/11/14 07:21:16;;;;;;;71.55;40.20;;;4.70;99.90;;;;;;5079607;28;20040;-56
2022/11/14 07:23:42;;;;;;;72.93;38.28;;;4.70;99.90;;;;;;5081220;28;20044;-58
2022/11/14 07:26:10;;;;;;;73.22;38.15;;;4.70;99.90;;;;;;5082247;28;20485;-56
2022/11/14 07:28:38;;;;;;;71.63;36.45;;;4.70;99.90;;;;;;5080856;28;20469;-59
2022/11/14 07:31:06;;;;;;;65.13;35.40;;;4.70;99.90;;;;;;5081517;28;20044;-59
2022/11/14 07:33:33;;;;;;;72.45;38.95;;;4.70;99.90;;;;;;5079581;28;20066;-58
2022/11/14 07:35:58;;;;;;;66.53;36.33;;;4.80;99.90;;;;;;5080449;28;20493;-58
2022/11/14 07:38:24;;;;;;;73.60;39.50;;;4.80;99.90;;;;;;5081235;28;20135;-59
2022/11/14 07:40:58;;;;;;;70.25;38.38;;;4.80;99.90;;;;;;5081918;28;20366;-59
2022/11/14 07:43:24;;;;;;;78.85;40.60;;;4.80;99.90;;;;;;5082121;28;20044;-59
2022/11/14 07:45:50;;;;;;;79.57;42.58;;;4.80;99.90;;;;;;5080780;28;20049;-62
2022/11/14 07:48:16;;;;;;;78.35;42.97;;;4.80;99.90;;;;;;5080311;28;20047;-59
2022/11/14 07:50:43;;;;;;;74.03;39.65;;;4.80;99.90;;;;;;5080486;28;20127;-60
2022/11/14 07:53:08;;;;;;;70.32;38.20;;;4.80;99.90;;;;;;5078297;28;20036;-60
2022/11/14 07:55:35;;;;;;;76.22;40.17;;;4.90;99.90;;;;;;5080429;28;20032;-57
2022/11/14 07:58:01;;;;;;;80.55;41.47;;;4.90;99.90;;;;;;5082084;28;20520;-59
2022/11/14 08:00:27;;;;;;;76.35;40.10;;;5.00;99.90;;;;;;5080406;28;20591;-58
2022/11/14 08:02:53;;;;;;;77.97;40.83;;;5.00;99.90;;;;;;5078652;28;20503;-58
2022/11/14 08:05:19;;;;;;;71.07;39.17;;;5.00;99.90;;;;;;5063005;28;20503;-58
2022/11/14 08:07:44;;;;;;;80.22;41.53;;;5.00;99.90;;;;;;5079470;28;20055;-60
2022/11/14 08:10:12;;;;;;;68.07;37.40;;;5.00;99.90;;;;;;5081232;28;20761;-59
2022/11/14 08:12:38;;;;;;;65.25;37.45;;;5.00;99.90;;;;;;5080416;28;20048;-59
2022/11/14 08:15:09;;;;;;;68.18;41.30;;;5.10;99.90;;;;;;5082989;28;20035;-60
2022/11/14 08:17:35;;;;;;;68.45;39.65;;;5.10;99.90;;;;;;5082164;28;20497;-59
2022/11/14 08:20:00;;;;;;;69.70;38.33;;;5.20;99.90;;;;;;5083988;28;20063;-60
2022/11/14 08:22:26;;;;;;;66.05;39.65;;;5.20;99.90;;;;;;5081784;28;20037;-58
2022/11/14 08:24:52;;;;;;;68.28;38.38;;;5.30;99.90;;;;;;5083797;28;20048;-61
2022/11/14 08:27:17;;;;;;;67.50;39.30;;;5.30;99.90;;;;;;5078372;28;20781;-60
2022/11/14 08:29:43;;;;;;;64.65;38.50;;;5.40;99.90;;;;;;5060639;28;20064;-60
2022/11/14 08:32:09;;;;;;;60.47;34.92;;;5.40;99.90;;;;;;5079471;28;20551;-60
2022/11/14 08:34:35;;;;;;;64.95;39.22;;;5.50;99.90;;;;;;5079775;28;20087;-60
2022/11/14 08:37:04;;;;;;;66.90;38.85;;;5.50;99.90;;;;;;5071106;28;20454;-59
2022/11/14 08:39:29;;;;;;;58.83;36.72;;;5.60;99.90;;;;;;5079790;28;20081;-60
2022/11/14 08:41:55;;;;;;;60.85;36.53;;;5.60;99.90;;;;;;5080963;28;20382;-61
2022/11/14 08:44:20;;;;;;;62.67;36.97;;;5.70;99.90;;;;;;5079925;28;20109;-59
2022/11/14 08:46:46;;;;;;;59.55;36.88;;;5.70;99.90;;;;;;5079603;28;20051;-59
2022/11/14 08:49:12;;;;;;;56.45;32.22;;;5.80;99.90;;;;;;5082044;28;20051;-61
2022/11/14 08:51:37;;;;;;;59.45;36.85;;;5.90;99.90;;;;;;5080187;28;20517;-61
2022/11/14 08:54:03;;;;;;;55.75;34.53;;;6.00;99.90;;;;;;5081208;28;20148;-60
2022/11/14 08:56:28;;;;;;;60.95;37.60;;;5.90;99.90;;;;;;5085804;28;20405;-60
2022/11/14 08:58:54;;;;;;;56.13;32.50;;;6.10;99.90;;;;;;5083110;28;20096;-60
2022/11/14 09:01:20;;;;;;;51.78;31.67;;;6.10;99.90;;;;;;5076996;28;20507;-61
2022/11/14 09:03:45;;;;;;;55.40;36.50;;;6.10;99.90;;;;;;5078891;28;20048;-61
2022/11/14 09:06:11;;;;;;;56.22;33.40;;;6.20;99.90;;;;;;5082068;28;20036;-58
2022/11/14 09:08:36;;;;;;;60.03;36.10;;;6.20;99.90;;;;;;5088581;28;20080;-60
2022/11/14 09:11:05;;;;;;;57.88;36.75;;;6.20;99.90;;;;;;5085763;28;20036;-60
2022/11/14 09:13:32;;;;;;;57.92;35.03;;;6.30;99.90;;;;;;5066599;28;20135;-60
2022/11/14 09:15:58;;;;;;;59.10;35.90;;;6.40;99.90;;;;;;5068681;28;20485;-60
2022/11/14 09:18:23;;;;;;;57.13;36.20;;;6.50;99.90;;;;;;5088943;28;20164;-61
2022/11/14 09:20:49;;;;;;;56.55;34.80;;;6.60;99.90;;;;;;5070964;28;20465;-60
2022/11/14 09:23:15;;;;;;;56.10;36.67;;;6.60;99.90;;;;;;5087087;28;20056;-59
2022/11/14 09:25:40;;;;;;;56.65;36.05;;;6.60;99.90;;;;;;5088211;28;20047;-60
2022/11/14 09:28:07;;;;;;;54.40;35.25;;;6.70;99.90;;;;;;5091828;28;20036;-61
2022/11/14 09:30:34;;;;;;;55.67;34.65;;;6.80;99.90;;;;;;5089350;28;20444;-59
2022/11/14 09:33:02;;;;;;;54.28;34.78;;;6.80;99.90;;;;;;5088377;28;20052;-59
2022/11/14 09:35:29;;;;;;;51.13;31.92;;;6.80;99.90;;;;;;5087330;28;20036;-60
2022/11/14 09:38:04;;;;;;;50.13;31.50;;;6.80;99.90;;;;;;5066842;28;20367;-59
2022/11/14 09:40:50;;;;;;;53.72;35.10;;;6.70;99.90;;;;;;5083932;28;20054;-58
2022/11/14 09:43:27;;;;;;;50.95;31.13;;;6.70;99.90;;;;;;5085748;28;20534;-58
2022/11/14 09:45:53;;;;;;;54.00;35.60;;;6.70;99.90;;;;;;5083082;28;20090;-59
2022/11/14 09:48:28;;;;;;;50.60;32.17;;;6.70;99.90;;;;;;5086188;28;20059;-59
2022/11/14 09:51:05;;;;;;;52.65;34.30;;;6.80;99.90;;;;;;5084634;28;20486;-59
2022/11/14 09:53:41;;;;;;;52.20;34.38;;;6.70;99.90;;;;;;5084178;28;20388;-58
2022/11/14 09:56:16;;;;;;;49.10;33.38;;;6.80;99.90;;;;;;5084050;28;20036;-59
2022/11/14 09:58:42;;;;;;;47.13;31.85;;;6.90;99.90;;;;;;5081478;28;20043;-59
2022/11/14 10:01:27;;;;;;;50.20;33.13;;;6.90;99.90;;;;;;5085518;28;20040;-61
2022/11/14 10:04:08;;;;;;;48.90;32.47;;;7.10;99.90;;;;;;5085320;28;20046;-56
2022/11/14 10:06:50;;;;;;;44.35;28.15;;;;;;;;;;5083414;28;20552;-57
2022/11/14 10:09:31;;;;;;;48.67;32.38;;;7.10;99.90;;;;;;5083014;28;20516;-61
2022/11/14 10:12:08;;;;;;;44.00;30.25;;;7.20;99.90;;;;;;5085267;28;20874;-59
2022/11/14 10:14:55;;;;;;;45.00;30.67;;;7.20;99.90;;;;;;5091741;28;20036;-59
2022/11/14 10:17:52;;;;;;;42.03;29.70;;;7.20;99.90;;;;;;5083249;28;20413;-57
2022/11/14 10:20:31;;;;;;;48.10;31.10;;;7.30;99.90;;;;;;5093840;28;20076;-58
2022/11/14 10:23:16;;;;;;;44.50;29.98;;;7.40;99.90;;;;;;5095055;28;20686;-59
2022/11/14 10:26:11;;;;;;;43.65;30.48;;;7.40;99.90;;;;;;5092432;28;20044;-59
2022/11/14 10:29:19;;;;;;;42.38;29.83;;;7.50;99.90;;;;;;5076842;28;20036;-60
2022/11/14 10:31:51;;;;;;;38.88;28.50;;;7.50;99.90;;;;;;5032584;28;20415;-59
2022/11/14 10:34:33;;;;;;;40.00;28.50;;;7.60;99.90;;;;;;5031542;28;20099;-59
2022/11/14 10:37:19;;;;;;;41.35;28.33;;;7.70;99.90;;;;;;5018689;28;20199;-59
2022/11/14 10:39:59;;;;;;;36.92;25.30;;;7.70;99.90;;;;;;5032032;28;20110;-60
2022/11/14 10:42:36;;;;;;;39.45;29.48;;;7.60;99.90;;;;;;5032242;28;20129;-60
2022/11/14 10:45:23;;;;;;;37.60;26.73;;;7.70;99.90;;;;;;5030505;28;20048;-60
2022/11/14 10:47:55;;;;;;;39.20;28.25;;;7.70;99.90;;;;;;5020862;28;20072;-58
2022/11/14 10:50:36;;;;;;;38.60;26.98;;;7.80;99.90;;;;;;5018682;28;20061;-60
2022/11/14 10:53:13;;;;;;;35.90;25.00;;;7.80;99.90;;;;;;5032275;28;20091;-59
2022/11/14 10:55:39;;;;;;;35.85;26.95;;;7.90;99.90;;;;;;5031977;28;20119;-59
2022/11/14 10:58:13;;;;;;;35.60;26.08;;;7.90;99.90;;;;;;5032492;28;20426;-59
2022/11/14 11:00:39;;;;;;;35.25;25.52;;;7.90;99.90;;;;;;5032152;28;20553;-60
2022/11/14 11:03:06;;;;;;;33.20;25.30;;;8.00;99.90;;;;;;5055248;28;20044;-60
2022/11/14 11:05:50;;;;;;;38.40;27.10;;;8.00;99.90;;;;;;5073051;28;20087;-60
2022/11/14 11:11:29;;;;;;;33.70;24.55;;;8.20;99.90;;;;;;5073226;28;20584;-58
2022/11/14 11:13:58;;;;;;;33.25;24.92;;;8.30;99.90;;;;;;5074113;28;20044;-60
2022/11/14 11:16:26;;;;;;;32.22;24.17;;;8.20;99.90;;;;;;5073571;28;20050;-60
2022/11/14 11:18:52;;;;;;;32.15;24.88;;;8.40;99.90;;;;;;5073877;28;20090;-60
2022/11/14 11:21:20;;;;;;;32.40;24.52;;;8.30;99.90;;;;;;5067943;28;20049;-60
2022/11/14 11:23:55;;;;;;;31.85;23.65;;;8.30;99.90;;;;;;5067237;28;20775;-60
2022/11/14 11:26:27;;;;;;;33.67;25.50;;;8.50;99.90;;;;;;5073972;28;20067;-59
2022/11/14 11:29:11;;;;;;;33.70;24.95;;;8.60;99.90;;;;;;5060229;28;20050;-60
2022/11/14 11:31:50;;;;;;;31.75;24.08;;;8.60;99.90;;;;;;5078495;28;20506;-59
2022/11/14 11:34:24;;;;;;;30.77;23.38;;;8.80;99.90;;;;;;5093211;28;20043;-60
2022/11/14 11:37:16;;;;;;;32.78;23.50;;;8.80;99.90;;;;;;5092228;28;20110;-60
2022/11/14 11:39:49;;;;;;;28.75;22.35;;;8.80;99.90;;;;;;5088224;28;20417;-61
2022/11/14 11:42:27;;;;;;;30.45;23.42;;;8.90;99.90;;;;;;5097642;28;20036;-59
2022/11/14 11:44:58;;;;;;;29.30;23.13;;;9.00;99.90;;;;;;5098241;28;20050;-60
2022/11/14 11:47:25;;;;;;;29.65;20.23;;;9.10;99.90;;;;;;5097162;28;20513;-59
2022/11/14 11:49:52;;;;;;;30.17;22.60;;;9.00;99.90;;;;;;5092214;28;20093;-60
2022/11/14 11:52:29;;;;;;;31.58;22.13;;;9.00;99.90;;;;;;5092510;28;20119;-60
2022/11/14 11:55:17;;;;;;;27.50;21.43;;;9.00;99.90;;;;;;5091673;28;20089;-63
2022/11/14 11:57:52;;;;;;;26.95;21.15;;;9.00;99.90;;;;;;5086131;28;20305;-60
2022/11/14 12:00:20;;;;;;;26.75;20.90;;;9.10;99.90;;;;;;5088064;28;20028;-59
2022/11/14 12:02:48;;;;;;;27.27;20.90;;;9.20;99.90;;;;;;5093349;28;20028;-60
2022/11/14 12:05:15;;;;;;;;;;;9.20;99.90;;;;;;5091603;28;20437;-59
2022/11/14 12:07:59;;;;;;;27.87;20.50;;;9.20;99.90;;;;;;5093469;28;19924;-59
2022/11/14 12:10:29;;;;;;;25.88;20.08;;;9.10;99.90;;;;;;5090179;28;20294;-60
2022/11/14 12:13:09;;;;;;;26.55;20.48;;;9.10;99.90;;;;;;5087014;28;20045;-59
2022/11/14 12:16:13;;;;;;;28.65;21.50;;;9.20;99.90;;;;;;5068764;28;20044;-60
2022/11/14 12:19:06;;;;;;;27.98;21.17;;;9.30;99.90;;;;;;5089689;28;20048;-59
2022/11/14 12:21:54;;;;;;;23.90;19.15;;;9.30;99.90;;;;;;5088350;28;20039;-60
2022/11/14 12:24:44;;;;;;;25.23;17.92;;;9.30;99.90;;;;;;5083373;28;20058;-60
2022/11/14 12:27:24;;;;;;;24.58;20.05;;;9.40;99.90;;;;;;5079632;28;20044;-60
2022/11/14 12:30:08;;;;;;;25.92;19.95;;;9.40;99.90;;;;;;5090783;28;20101;-60
2022/11/14 12:32:56;;;;;;;24.92;20.33;;;9.50;99.90;;;;;;5091827;28;20421;-60
2022/11/14 12:35:30;;;;;;;24.55;20.50;;;9.50;99.90;;;;;;5091612;28;20039;-60
2022/11/14 12:37:58;;;;;;;24.77;20.20;;;9.60;99.90;;;;;;5089426;28;20086;-60
2022/11/14 12:40:51;;;;;;;24.65;20.10;;;9.60;99.90;;;;;;5087638;28;20123;-59
2022/11/14 12:43:41;;;;;;;22.88;18.80;;;9.70;99.90;;;;;;5085139;28;20119;-59
2022/11/14 12:46:11;;;;;;;22.77;18.33;;;9.70;99.90;;;;;;5081400;28;20048;-61
2022/11/14 12:48:41;;;;;;;25.23;19.10;;;9.70;99.90;;;;;;5088222;28;20799;-61
2022/11/14 12:51:28;;;;;;;22.08;17.35;;;9.70;99.90;;;;;;5084016;28;20033;-58